sensor_id;sensor_type;location;lat;lon;timestamp;P1;P2;P0
61542;PMS5003;47414;43.168;44.812;2022-12-07T00:03:43;25.75;24.50;18.25
61542;PMS5003;47414;43.168;44.812;2022-12-07T00:08:45;25.75;23.50;15.25
61542;PMS5003;47414;43.168;44.812;2022-12-07T00:13:47;30.00;25.00;15.50
61542;PMS5003;47414;43.168;44.812;2022-12-07T00:18:51;28.75;26.75;18.25
61542;PMS5003;47414;43.168;44.812;2022-12-07T00:23:52;29.25;28.00;17.50
61542;PMS5003;47414;43.168;44.812;2022-12-07T00:28:55;7.50;7.50;5.00
61542;PMS5003;47414;43.168;44.812;2022-12-07T00:33:56;10.00;10.00;7.00
61542;PMS5003;47414;43.168;44.812;2022-12-07T00:38:57;9.00;9.00;5.50
61542;PMS5003;47414;43.168;44.812;2022-12-07T00:44:00;12.00;12.00;8.00
61542;PMS5003;47414;43.168;44.812;2022-12-07T00:49:00;12.00;12.00;6.00
61542;PMS5003;47414;43.168;44.812;2022-12-07T00:54:01;8.00;8.00;5.00
61542;PMS5003;47414;43.168;44.812;2022-12-07T00:59:03;9.00;9.00;6.00
61542;PMS5003;47414;43.168;44.812;2022-12-07T01:04:04;6.00;6.00;3.50
61542;PMS5003;47414;43.168;44.812;2022-12-07T01:09:05;8.00;8.00;5.00
61542;PMS5003;47414;43.168;44.812;2022-12-07T01:14:08;6.00;6.00;3.00
61542;PMS5003;47414;43.168;44.812;2022-12-07T01:19:09;6.00;4.00;3.00
61542;PMS5003;47414;43.168;44.812;2022-12-07T01:24:10;11.00;11.00;6.00
61542;PMS5003;47414;43.168;44.812;2022-12-07T01:29:12;22.75;20.75;12.50
61542;PMS5003;47414;43.168;44.812;2022-12-07T01:34:13;25.25;25.25;16.50
61542;PMS5003;47414;43.168;44.812;2022-12-07T01:39:13;22.50;20.00;13.25
61542;PMS5003;47414;43.168;44.812;2022-12-07T01:44:17;27.00;26.50;16.00
61542;PMS5003;47414;43.168;44.812;2022-12-07T01:49:22;12.00;12.00;8.00
61542;PMS5003;47414;43.168;44.812;2022-12-07T01:54:23;19.50;15.75;8.50
61542;PMS5003;47414;43.168;44.812;2022-12-07T01:59:26;12.50;11.50;7.00
61542;PMS5003;47414;43.168;44.812;2022-12-07T02:04:26;17.00;13.00;8.50
61542;PMS5003;47414;43.168;44.812;2022-12-07T02:09:27;9.50;9.50;6.25
61542;PMS5003;47414;43.168;44.812;2022-12-07T02:14:29;24.25;23.75;14.50
61542;PMS5003;47414;43.168;44.812;2022-12-07T02:19:44;27.75;27.75;18.00
61542;PMS5003;47414;43.168;44.812;2022-12-07T02:24:53;12.50;12.50;7.00
61542;PMS5003;47414;43.168;44.812;2022-12-07T02:29:57;3.25;3.25;1.00
61542;PMS5003;47414;43.168;44.812;2022-12-07T02:35:01;9.00;8.00;6.00
61542;PMS5003;47414;43.168;44.812;2022-12-07T02:40:06;4.25;3.75;3.00
61542;PMS5003;47414;43.168;44.812;2022-12-07T02:45:11;5.00;4.00;3.00
61542;PMS5003;47414;43.168;44.812;2022-12-07T02:50:13;6.00;6.00;4.00
61542;PMS5003;47414;43.168;44.812;2022-12-07T02:55:14;9.00;8.00;6.00
61542;PMS5003;47414;43.168;44.812;2022-12-07T03:00:17;10.00;9.50;6.00
61542;PMS5003;47414;43.168;44.812;2022-12-07T03:05:28;8.00;8.00;4.00
61542;PMS5003;47414;43.168;44.812;2022-12-07T03:10:34;9.00;8.00;6.00
61542;PMS5003;47414;43.168;44.812;2022-12-07T03:15:39;7.50;7.50;6.00
61542;PMS5003;47414;43.168;44.812;2022-12-07T03:20:41;7.00;7.00;4.00
61542;PMS5003;47414;43.168;44.812;2022-12-07T03:25:43;9.00;8.00;5.00
61542;PMS5003;47414;43.168;44.812;2022-12-07T03:30:47;4.00;4.00;4.00
61542;PMS5003;47414;43.168;44.812;2022-12-07T03:35:50;11.75;11.00;6.50
61542;PMS5003;47414;43.168;44.812;2022-12-07T03:40:52;9.00;9.00;4.00
61542;PMS5003;47414;43.168;44.812;2022-12-07T03:45:59;7.00;7.00;3.50
61542;PMS5003;47414;43.168;44.812;2022-12-07T03:51:04;13.50;12.50;7.50
61542;PMS5003;47414;43.168;44.812;2022-12-07T03:56:07;9.00;7.50;4.00
61542;PMS5003;47414;43.168;44.812;2022-12-07T04:01:10;6.00;6.00;4.00
61542;PMS5003;47414;43.168;44.812;2022-12-07T04:06:10;9.00;8.00;4.00
61542;PMS5003;47414;43.168;44.812;2022-12-07T04:11:11;8.00;6.50;4.50
61542;PMS5003;47414;43.168;44.812;2022-12-07T04:16:13;9.75;9.25;6.00
61542;PMS5003;47414;43.168;44.812;2022-12-07T04:21:13;9.75;9.75;6.00
61542;PMS5003;47414;43.168;44.812;2022-12-07T04:26:14;10.50;9.00;6.00
61542;PMS5003;47414;43.168;44.812;2022-12-07T04:31:16;12.00;10.00;7.00
61542;PMS5003;47414;43.168;44.812;2022-12-07T04:36:16;8.25;8.00;4.50
61542;PMS5003;47414;43.168;44.812;2022-12-07T04:41:17;7.00;6.00;4.50
61542;PMS5003;47414;43.168;44.812;2022-12-07T04:46:19;12.50;11.00;6.00
61542;PMS5003;47414;43.168;44.812;2022-12-07T04:51:20;16.00;15.00;10.00
61542;PMS5003;47414;43.168;44.812;2022-12-07T04:56:21;9.75;9.75;7.00
61542;PMS5003;47414;43.168;44.812;2022-12-07T05:01:23;7.75;7.50;4.00
61542;PMS5003;47414;43.168;44.812;2022-12-07T05:06:24;6.50;6.00;6.00
61542;PMS5003;47414;43.168;44.812;2022-12-07T05:11:25;13.50;12.50;6.25
61542;PMS5003;47414;43.168;44.812;2022-12-07T05:16:27;12.25;12.25;6.50
61542;PMS5003;47414;43.168;44.812;2022-12-07T05:21:30;10.50;9.50;6.00
61542;PMS5003;47414;43.168;44.812;2022-12-07T05:26:31;10.25;9.75;6.25
61542;PMS5003;47414;43.168;44.812;2022-12-07T05:31:33;9.50;9.50;6.50
61542;PMS5003;47414;43.168;44.812;2022-12-07T05:36:34;13.00;11.00;8.00
61542;PMS5003;47414;43.168;44.812;2022-12-07T05:41:34;13.00;13.00;9.00
61542;PMS5003;47414;43.168;44.812;2022-12-07T05:46:36;10.00;9.50;6.25
61542;PMS5003;47414;43.168;44.812;2022-12-07T05:51:37;10.00;9.75;5.50
61542;PMS5003;47414;43.168;44.812;2022-12-07T05:56:38;10.00;9.50;4.00
61542;PMS5003;47414;43.168;44.812;2022-12-07T06:01:39;11.00;11.00;7.00
61542;PMS5003;47414;43.168;44.812;2022-12-07T06:06:40;15.50;15.50;9.25
61542;PMS5003;47414;43.168;44.812;2022-12-07T06:11:41;10.50;10.50;5.50
61542;PMS5003;47414;43.168;44.812;2022-12-07T06:16:42;10.00;10.00;6.00
61542;PMS5003;47414;43.168;44.812;2022-12-07T06:21:43;9.50;8.50;4.75
61542;PMS5003;47414;43.168;44.812;2022-12-07T06:26:44;9.00;8.00;4.50
61542;PMS5003;47414;43.168;44.812;2022-12-07T06:31:46;10.00;8.50;4.00
61542;PMS5003;47414;43.168;44.812;2022-12-07T06:36:46;7.50;7.50;6.00
61542;PMS5003;47414;43.168;44.812;2022-12-07T06:41:47;13.00;11.25;5.25
61542;PMS5003;47414;43.168;44.812;2022-12-07T06:46:49;4.25;4.00;2.00
61542;PMS5003;47414;43.168;44.812;2022-12-07T06:51:49;11.00;10.00;6.50
61542;PMS5003;47414;43.168;44.812;2022-12-07T06:56:50;12.50;11.75;7.00
61542;PMS5003;47414;43.168;44.812;2022-12-07T07:01:52;15.00;13.75;10.00
61542;PMS5003;47414;43.168;44.812;2022-12-07T07:06:52;5.00;4.50;2.00
61542;PMS5003;47414;43.168;44.812;2022-12-07T07:11:53;13.00;13.00;7.00
61542;PMS5003;47414;43.168;44.812;2022-12-07T07:16:55;10.50;10.00;7.00
61542;PMS5003;47414;43.168;44.812;2022-12-07T07:21:55;12.00;11.25;7.00
61542;PMS5003;47414;43.168;44.812;2022-12-07T07:26:56;11.00;10.75;6.00
61542;PMS5003;47414;43.168;44.812;2022-12-07T07:31:57;13.50;11.00;10.00
61542;PMS5003;47414;43.168;44.812;2022-12-07T07:36:58;21.00;18.25;11.00
61542;PMS5003;47414;43.168;44.812;2022-12-07T07:41:58;12.75;11.50;4.50
61542;PMS5003;47414;43.168;44.812;2022-12-07T07:47:00;19.75;18.25;11.00
61542;PMS5003;47414;43.168;44.812;2022-12-07T07:52:01;30.00;28.50;17.00
61542;PMS5003;47414;43.168;44.812;2022-12-07T07:57:01;33.50;28.75;19.25
61542;PMS5003;47414;43.168;44.812;2022-12-07T08:02:03;20.00;16.75;13.00
61542;PMS5003;47414;43.168;44.812;2022-12-07T08:07:04;20.75;20.25;12.00
61542;PMS5003;47414;43.168;44.812;2022-12-07T08:12:05;17.50;16.75;9.50
61542;PMS5003;47414;43.168;44.812;2022-12-07T08:17:07;23.25;23.25;15.50
61542;PMS5003;47414;43.168;44.812;2022-12-07T08:22:07;27.50;26.25;16.75
61542;PMS5003;47414;43.168;44.812;2022-12-07T08:27:08;14.00;11.00;7.50
61542;PMS5003;47414;43.168;44.812;2022-12-07T08:32:10;23.25;23.00;16.75
61542;PMS5003;47414;43.168;44.812;2022-12-07T08:37:10;23.75;23.75;14.75
61542;PMS5003;47414;43.168;44.812;2022-12-07T08:42:11;25.00;23.00;18.00
61542;PMS5003;47414;43.168;44.812;2022-12-07T08:47:12;23.25;23.00;14.00
61542;PMS5003;47414;43.168;44.812;2022-12-07T08:52:13;20.50;18.25;15.75
61542;PMS5003;47414;43.168;44.812;2022-12-07T08:57:14;29.75;26.75;14.00
61542;PMS5003;47414;43.168;44.812;2022-12-07T09:02:15;15.50;13.75;8.00
61542;PMS5003;47414;43.168;44.812;2022-12-07T09:07:16;30.00;26.75;17.00
61542;PMS5003;47414;43.168;44.812;2022-12-07T09:12:17;31.00;28.50;20.75
61542;PMS5003;47414;43.168;44.812;2022-12-07T09:17:18;34.00;29.75;16.25
61542;PMS5003;47414;43.168;44.812;2022-12-07T09:22:19;17.50;16.25;6.00
61542;PMS5003;47414;43.168;44.812;2022-12-07T09:27:19;27.50;26.25;16.75
61542;PMS5003;47414;43.168;44.812;2022-12-07T09:32:21;34.50;32.00;18.75
61542;PMS5003;47414;43.168;44.812;2022-12-07T09:37:22;32.25;30.50;20.25
61542;PMS5003;47414;43.168;44.812;2022-12-07T09:42:27;33.00;30.00;20.00
61542;PMS5003;47414;43.168;44.812;2022-12-07T09:47:30;25.00;25.00;17.00
61542;PMS5003;47414;43.168;44.812;2022-12-07T09:52:31;31.50;29.75;21.00
61542;PMS5003;47414;43.168;44.812;2022-12-07T09:57:32;21.25;18.25;13.00
61542;PMS5003;47414;43.168;44.812;2022-12-07T10:02:36;23.00;23.00;15.25
61542;PMS5003;47414;43.168;44.812;2022-12-07T10:07:36;13.00;13.00;7.00
61542;PMS5003;47414;43.168;44.812;2022-12-07T10:12:44;16.00;16.00;8.50
61542;PMS5003;47414;43.168;44.812;2022-12-07T10:17:54;27.25;27.00;16.75
61542;PMS5003;47414;43.168;44.812;2022-12-07T10:22:55;15.25;13.00;6.50
61542;PMS5003;47414;43.168;44.812;2022-12-07T10:28:00;13.00;10.50;6.50
61542;PMS5003;47414;43.168;44.812;2022-12-07T10:33:02;11.00;11.00;8.00
61542;PMS5003;47414;43.168;44.812;2022-12-07T10:38:15;9.25;9.25;7.00
61542;PMS5003;47414;43.168;44.812;2022-12-07T10:43:29;10.50;9.50;7.00
61542;PMS5003;47414;43.168;44.812;2022-12-07T10:48:32;8.50;7.75;5.00
61542;PMS5003;47414;43.168;44.812;2022-12-07T10:53:37;11.50;9.50;7.00
61542;PMS5003;47414;43.168;44.812;2022-12-07T10:58:44;10.25;10.00;6.50
61542;PMS5003;47414;43.168;44.812;2022-12-07T11:03:56;11.25;11.25;7.25
61542;PMS5003;47414;43.168;44.812;2022-12-07T11:09:06;7.75;7.25;5.00
61542;PMS5003;47414;43.168;44.812;2022-12-07T11:14:18;8.75;7.50;3.00
61542;PMS5003;47414;43.168;44.812;2022-12-07T11:19:32;8.00;8.00;4.00
61542;PMS5003;47414;43.168;44.812;2022-12-07T11:24:37;9.50;9.50;5.00
61542;PMS5003;47414;43.168;44.812;2022-12-07T11:29:49;11.00;11.00;5.50
61542;PMS5003;47414;43.168;44.812;2022-12-07T11:34:57;10.00;10.00;6.50
61542;PMS5003;47414;43.168;44.812;2022-12-07T11:40:00;9.25;9.25;6.50
61542;PMS5003;47414;43.168;44.812;2022-12-07T11:45:03;6.50;5.00;3.50
61542;PMS5003;47414;43.168;44.812;2022-12-07T11:50:17;11.25;11.25;8.00
61542;PMS5003;47414;43.168;44.812;2022-12-07T11:55:23;16.00;14.50;9.25
61542;PMS5003;47414;43.168;44.812;2022-12-07T12:00:26;13.25;11.25;7.50
61542;PMS5003;47414;43.168;44.812;2022-12-07T12:05:29;12.75;11.50;7.50
61542;PMS5003;47414;43.168;44.812;2022-12-07T12:10:32;9.00;9.00;4.75
61542;PMS5003;47414;43.168;44.812;2022-12-07T12:15:49;13.50;13.00;8.00
61542;PMS5003;47414;43.168;44.812;2022-12-07T12:20:54;15.00;14.50;10.50
61542;PMS5003;47414;43.168;44.812;2022-12-07T12:25:56;14.50;12.25;8.00
61542;PMS5003;47414;43.168;44.812;2022-12-07T12:31:05;18.00;17.25;10.00
61542;PMS5003;47414;43.168;44.812;2022-12-07T12:36:18;13.50;12.50;7.50
61542;PMS5003;47414;43.168;44.812;2022-12-07T12:46:46;13.50;13.00;7.50
61542;PMS5003;47414;43.168;44.812;2022-12-07T12:51:48;15.00;14.25;7.50
61542;PMS5003;47414;43.168;44.812;2022-12-07T12:56:50;16.00;14.00;7.00
61542;PMS5003;47414;43.168;44.812;2022-12-07T13:01:54;14.25;13.25;5.75
61542;PMS5003;47414;43.168;44.812;2022-12-07T13:06:56;17.00;16.00;9.50
61542;PMS5003;47414;43.168;44.812;2022-12-07T13:12:01;13.50;13.00;8.25
61542;PMS5003;47414;43.168;44.812;2022-12-07T13:17:02;13.50;12.00;8.00
61542;PMS5003;47414;43.168;44.812;2022-12-07T13:22:08;13.00;13.00;9.50
61542;PMS5003;47414;43.168;44.812;2022-12-07T13:27:25;8.25;8.25;5.75
61542;PMS5003;47414;43.168;44.812;2022-12-07T13:32:27;15.75;14.25;7.75
61542;PMS5003;47414;43.168;44.812;2022-12-07T13:37:30;15.50;13.75;6.50
61542;PMS5003;47414;43.168;44.812;2022-12-07T13:42:32;16.75;15.50;9.00
61542;PMS5003;47414;43.168;44.812;2022-12-07T13:47:34;16.25;16.00;10.25
61542;PMS5003;47414;43.168;44.812;2022-12-07T13:52:42;17.75;17.00;11.00
61542;PMS5003;47414;43.168;44.812;2022-12-07T13:57:44;29.00;28.00;18.00
61542;PMS5003;47414;43.168;44.812;2022-12-07T14:02:54;22.00;21.50;13.00
61542;PMS5003;47414;43.168;44.812;2022-12-07T14:07:57;19.50;18.50;12.00
61542;PMS5003;47414;43.168;44.812;2022-12-07T14:12:58;17.00;16.50;11.00
61542;PMS5003;47414;43.168;44.812;2022-12-07T14:18:00;21.00;20.00;13.00
61542;PMS5003;47414;43.168;44.812;2022-12-07T14:23:02;17.25;17.25;11.00
61542;PMS5003;47414;43.168;44.812;2022-12-07T14:28:03;16.00;15.50;10.00
61542;PMS5003;47414;43.168;44.812;2022-12-07T14:33:04;16.50;16.50;12.00
61542;PMS5003;47414;43.168;44.812;2022-12-07T14:38:07;16.25;16.25;13.00
61542;PMS5003;47414;43.168;44.812;2022-12-07T14:43:09;16.75;16.75;12.00
61542;PMS5003;47414;43.168;44.812;2022-12-07T14:48:12;23.25;17.25;10.00
61542;PMS5003;47414;43.168;44.812;2022-12-07T14:53:14;19.75;18.25;10.00
61542;PMS5003;47414;43.168;44.812;2022-12-07T14:58:16;16.00;15.50;8.00
61542;PMS5003;47414;43.168;44.812;2022-12-07T15:03:17;21.75;21.50;13.75
61542;PMS5003;47414;43.168;44.812;2022-12-07T15:08:19;19.50;18.75;12.00
61542;PMS5003;47414;43.168;44.812;2022-12-07T15:13:20;27.00;27.00;18.00
61542;PMS5003;47414;43.168;44.812;2022-12-07T15:18:21;20.50;20.50;14.50
61542;PMS5003;47414;43.168;44.812;2022-12-07T15:23:23;18.00;17.25;13.75
61542;PMS5003;47414;43.168;44.812;2022-12-07T15:28:23;27.50;27.50;15.00
61542;PMS5003;47414;43.168;44.812;2022-12-07T15:33:24;29.00;28.00;18.75
61542;PMS5003;47414;43.168;44.812;2022-12-07T15:38:26;15.50;15.50;12.25
61542;PMS5003;47414;43.168;44.812;2022-12-07T15:43:26;21.75;21.25;15.00
61542;PMS5003;47414;43.168;44.812;2022-12-07T15:48:27;36.00;31.50;17.00
61542;PMS5003;47414;43.168;44.812;2022-12-07T15:53:29;38.50;35.75;21.25
61542;PMS5003;47414;43.168;44.812;2022-12-07T15:58:30;34.75;31.75;20.00
61542;PMS5003;47414;43.168;44.812;2022-12-07T16:03:34;30.00;28.75;19.00
61542;PMS5003;47414;43.168;44.812;2022-12-07T16:08:36;37.50;33.25;22.00
61542;PMS5003;47414;43.168;44.812;2022-12-07T16:13:37;40.00;37.75;21.75
61542;PMS5003;47414;43.168;44.812;2022-12-07T16:18:37;34.50;32.75;21.25
61542;PMS5003;47414;43.168;44.812;2022-12-07T16:23:40;18.50;18.00;7.50
61542;PMS5003;47414;43.168;44.812;2022-12-07T16:28:40;40.00;33.75;21.25
61542;PMS5003;47414;43.168;44.812;2022-12-07T16:33:41;31.75;28.50;17.25
61542;PMS5003;47414;43.168;44.812;2022-12-07T16:38:44;37.50;34.00;22.00
61542;PMS5003;47414;43.168;44.812;2022-12-07T16:43:44;34.00;30.50;19.25
61542;PMS5003;47414;43.168;44.812;2022-12-07T16:48:45;35.50;34.50;19.50
61542;PMS5003;47414;43.168;44.812;2022-12-07T16:53:48;33.75;30.50;20.00
61542;PMS5003;47414;43.168;44.812;2022-12-07T16:58:52;21.00;19.75;14.25
61542;PMS5003;47414;43.168;44.812;2022-12-07T17:03:53;39.00;38.50;25.00
61542;PMS5003;47414;43.168;44.812;2022-12-07T17:08:55;34.50;32.00;22.00
61542;PMS5003;47414;43.168;44.812;2022-12-07T17:13:56;30.75;25.00;18.25
61542;PMS5003;47414;43.168;44.812;2022-12-07T17:18:57;35.50;34.00;19.00
61542;PMS5003;47414;43.168;44.812;2022-12-07T17:23:59;39.50;37.25;23.25
61542;PMS5003;47414;43.168;44.812;2022-12-07T17:29:00;37.75;36.50;22.25
61542;PMS5003;47414;43.168;44.812;2022-12-07T17:34:00;36.25;35.50;20.25
61542;PMS5003;47414;43.168;44.812;2022-12-07T17:39:06;37.75;32.75;21.50
61542;PMS5003;47414;43.168;44.812;2022-12-07T17:44:07;34.25;30.75;16.75
61542;PMS5003;47414;43.168;44.812;2022-12-07T17:49:08;20.00;18.75;12.00
61542;PMS5003;47414;43.168;44.812;2022-12-07T17:54:10;48.67;40.33;25.00
61542;PMS5003;47414;43.168;44.812;2022-12-07T17:59:11;42.00;37.75;24.50
61542;PMS5003;47414;43.168;44.812;2022-12-07T18:04:12;40.00;38.25;24.50
61542;PMS5003;47414;43.168;44.812;2022-12-07T18:09:14;29.75;27.75;19.00
61542;PMS5003;47414;43.168;44.812;2022-12-07T18:14:15;36.00;34.00;21.75
61542;PMS5003;47414;43.168;44.812;2022-12-07T18:19:15;36.75;35.50;21.00
61542;PMS5003;47414;43.168;44.812;2022-12-07T18:24:17;27.50;24.75;16.00
61542;PMS5003;47414;43.168;44.812;2022-12-07T18:29:18;32.25;31.25;20.50
61542;PMS5003;47414;43.168;44.812;2022-12-07T18:34:19;32.50;29.50;18.00
61542;PMS5003;47414;43.168;44.812;2022-12-07T18:39:21;39.50;34.25;19.50
61542;PMS5003;47414;43.168;44.812;2022-12-07T18:44:21;39.25;34.00;21.00
61542;PMS5003;47414;43.168;44.812;2022-12-07T18:49:22;35.75;32.25;19.50
61542;PMS5003;47414;43.168;44.812;2022-12-07T18:54:23;40.25;38.00;22.50
61542;PMS5003;47414;43.168;44.812;2022-12-07T18:59:24;37.75;36.75;23.25
61542;PMS5003;47414;43.168;44.812;2022-12-07T19:04:25;42.50;40.00;23.50
61542;PMS5003;47414;43.168;44.812;2022-12-07T19:09:27;30.00;29.75;20.00
61542;PMS5003;47414;43.168;44.812;2022-12-07T19:14:27;36.25;32.00;19.50
61542;PMS5003;47414;43.168;44.812;2022-12-07T19:19:29;29.00;27.25;18.00
61542;PMS5003;47414;43.168;44.812;2022-12-07T19:24:31;35.00;31.00;20.00
61542;PMS5003;47414;43.168;44.812;2022-12-07T19:29:32;38.00;36.50;24.25
61542;PMS5003;47414;43.168;44.812;2022-12-07T19:34:32;30.50;27.75;13.50
61542;PMS5003;47414;43.168;44.812;2022-12-07T19:39:34;33.00;31.75;23.00
61542;PMS5003;47414;43.168;44.812;2022-12-07T19:44:35;37.75;35.50;20.50
61542;PMS5003;47414;43.168;44.812;2022-12-07T19:49:35;35.33;34.00;21.33
61542;PMS5003;47414;43.168;44.812;2022-12-07T19:54:37;31.33;28.67;21.00
61542;PMS5003;47414;43.168;44.812;2022-12-07T19:59:38;27.00;27.00;15.33
61542;PMS5003;47414;43.168;44.812;2022-12-07T20:04:38;38.00;35.00;20.25
61542;PMS5003;47414;43.168;44.812;2022-12-07T20:09:40;42.00;38.33;25.00
61542;PMS5003;47414;43.168;44.812;2022-12-07T20:14:41;35.67;33.67;21.67
61542;PMS5003;47414;43.168;44.812;2022-12-07T20:19:42;30.00;25.75;17.50
61542;PMS5003;47414;43.168;44.812;2022-12-07T20:24:44;33.50;32.50;21.00
61542;PMS5003;47414;43.168;44.812;2022-12-07T20:29:44;33.25;32.00;20.75
61542;PMS5003;47414;43.168;44.812;2022-12-07T20:34:45;34.75;31.25;22.00
61542;PMS5003;47414;43.168;44.812;2022-12-07T20:39:47;36.50;33.00;19.00
61542;PMS5003;47414;43.168;44.812;2022-12-07T20:44:47;39.00;36.00;19.00
61542;PMS5003;47414;43.168;44.812;2022-12-07T20:49:48;33.75;31.25;18.75
61542;PMS5003;47414;43.168;44.812;2022-12-07T20:54:49;30.00;28.00;18.00
61542;PMS5003;47414;43.168;44.812;2022-12-07T20:59:50;31.00;28.00;18.75
61542;PMS5003;47414;43.168;44.812;2022-12-07T21:04:50;39.50;35.00;20.00
61542;PMS5003;47414;43.168;44.812;2022-12-07T21:09:52;33.75;32.00;19.00
61542;PMS5003;47414;43.168;44.812;2022-12-07T21:14:53;37.50;33.00;18.75
61542;PMS5003;47414;43.168;44.812;2022-12-07T21:19:54;35.50;30.50;17.50
61542;PMS5003;47414;43.168;44.812;2022-12-07T21:24:56;24.00;24.00;12.25
61542;PMS5003;47414;43.168;44.812;2022-12-07T21:29:56;32.75;28.00;19.25
61542;PMS5003;47414;43.168;44.812;2022-12-07T21:34:57;40.50;38.50;21.00
61542;PMS5003;47414;43.168;44.812;2022-12-07T21:39:59;34.00;33.25;18.25
61542;PMS5003;47414;43.168;44.812;2022-12-07T21:44:59;30.50;29.50;18.00
61542;PMS5003;47414;43.168;44.812;2022-12-07T21:50:00;33.25;31.00;19.00
61542;PMS5003;47414;43.168;44.812;2022-12-07T21:55:02;39.75;38.50;22.00
61542;PMS5003;47414;43.168;44.812;2022-12-07T22:00:02;30.00;27.50;15.50
61542;PMS5003;47414;43.168;44.812;2022-12-07T22:05:03;29.00;27.50;16.00
61542;PMS5003;47414;43.168;44.812;2022-12-07T22:10:06;38.00;34.00;21.00
61542;PMS5003;47414;43.168;44.812;2022-12-07T22:15:07;36.67;36.00;22.00
61542;PMS5003;47414;43.168;44.812;2022-12-07T22:20:08;36.75;33.50;21.25
61542;PMS5003;47414;43.168;44.812;2022-12-07T22:25:10;33.75;31.75;17.00
61542;PMS5003;47414;43.168;44.812;2022-12-07T22:30:11;39.50;35.50;21.00
61542;PMS5003;47414;43.168;44.812;2022-12-07T22:35:12;31.50;31.50;21.25
61542;PMS5003;47414;43.168;44.812;2022-12-07T22:45:16;29.00;25.00;18.75
61542;PMS5003;47414;43.168;44.812;2022-12-07T22:50:16;41.75;35.00;22.00
61542;PMS5003;47414;43.168;44.812;2022-12-07T22:55:17;38.50;33.75;21.00
61542;PMS5003;47414;43.168;44.812;2022-12-07T23:00:19;43.75;40.00;21.25
61542;PMS5003;47414;43.168;44.812;2022-12-07T23:05:19;31.75;29.50;21.00
61542;PMS5003;47414;43.168;44.812;2022-12-07T23:10:20;36.50;33.25;22.25
61542;PMS5003;47414;43.168;44.812;2022-12-07T23:15:22;34.00;31.00;21.67
61542;PMS5003;47414;43.168;44.812;2022-12-07T23:20:23;36.75;34.00;22.00
61542;PMS5003;47414;43.168;44.812;2022-12-07T23:25:23;24.75;24.75;18.00
61542;PMS5003;47414;43.168;44.812;2022-12-07T23:30:25;34.00;33.00;19.00
61542;PMS5003;47414;43.168;44.812;2022-12-07T23:35:26;33.25;32.25;20.00
61542;PMS5003;47414;43.168;44.812;2022-12-07T23:40:26;39.50;37.75;25.00
61542;PMS5003;47414;43.168;44.812;2022-12-07T23:45:28;39.00;34.00;21.00
61542;PMS5003;47414;43.168;44.812;2022-12-07T23:50:29;36.75;36.75;21.00
61542;PMS5003;47414;43.168;44.812;2022-12-07T23:55:29;38.50;37.00;21.50
